createdAt,value
2022-09-29T00:00:39.995Z,8.87
2022-09-29T00:03:08.315Z,8.81
2022-09-29T00:05:36.248Z,8.79
2022-09-29T00:08:05.625Z,8.76
2022-09-29T00:10:33.473Z,8.70
2022-09-29T00:13:01.284Z,8.63
2022-09-29T00:15:29.048Z,8.59
2022-09-29T00:18:13.307Z,8.57
2022-09-29T00:20:41.786Z,8.54
2022-09-29T00:23:10.925Z,8.54
2022-09-29T00:25:38.682Z,8.50
2022-09-29T00:28:06.397Z,8.48
2022-09-29T00:30:34.117Z,8.43
2022-09-29T00:33:01.935Z,8.41
2022-09-29T00:35:29.647Z,8.39
2022-09-29T00:37:57.385Z,8.34
2022-09-29T00:40:26.530Z,8.29
2022-09-29T00:42:54.397Z,8.27
2022-09-29T00:45:23.518Z,8.25
2022-09-29T00:47:59.426Z,8.25
2022-09-29T00:50:31.783Z,8.21
2022-09-29T00:53:04.107Z,8.17
2022-09-29T00:55:39.928Z,8.16
2022-09-29T00:58:14.322Z,8.13
2022-09-29T01:00:43.794Z,8.14
2022-09-29T01:03:14.314Z,8.09
2022-09-29T01:05:48.480Z,8.05
2022-09-29T01:08:23.381Z,8.03
2022-09-29T01:10:54.641Z,7.99
2022-09-29T01:13:23.393Z,7.96
2022-09-29T01:15:51.335Z,7.94
2022-09-29T01:18:19.245Z,7.93
2022-09-29T01:20:54.302Z,7.90
2022-09-29T01:24:09.888Z,7.86
2022-09-29T01:27:02.641Z,7.84
2022-09-29T01:30:04.076Z,7.80
2022-09-29T01:32:48.068Z,7.76
2022-09-29T01:35:21.512Z,7.76
2022-09-29T01:38:01.958Z,7.71
2022-09-29T01:40:39.549Z,7.68
2022-09-29T01:43:10.543Z,7.69
2022-09-29T01:45:41.345Z,7.68
2022-09-29T01:48:16.028Z,7.65
2022-09-29T01:50:48.626Z,7.60
2022-09-29T01:53:21.503Z,7.56
2022-09-29T01:55:53.240Z,7.56
2022-09-29T01:58:25.707Z,7.54
2022-09-29T02:00:58.089Z,7.54
2022-09-29T02:03:31.611Z,7.55
2022-09-29T02:06:02.665Z,7.52
2022-09-29T02:08:34.303Z,7.53
2022-09-29T02:11:05.086Z,7.50
2022-09-29T02:13:37.177Z,7.48
2022-09-29T02:16:08.084Z,7.45
2022-09-29T02:18:44.824Z,7.42
2022-09-29T02:21:12.684Z,7.43
2022-09-29T02:23:40.767Z,7.41
2022-09-29T02:26:08.484Z,7.37
2022-09-29T02:28:36.288Z,7.39
2022-09-29T02:31:05.056Z,7.37
2022-09-29T02:33:33.014Z,7.35
2022-09-29T02:36:19.618Z,7.34
2022-09-29T02:38:54.079Z,7.31
2022-09-29T02:41:50.005Z,7.32
2022-09-29T02:44:47.978Z,7.30
2022-09-29T02:47:39.064Z,7.27
2022-09-29T02:50:32.411Z,7.25
2022-09-29T02:53:06.501Z,7.23
2022-09-29T02:55:41.721Z,7.17
2022-09-29T02:58:16.606Z,7.16
2022-09-29T03:00:45.154Z,7.13
2022-09-29T03:03:13.043Z,7.14
2022-09-29T03:05:41.025Z,7.10
2022-09-29T03:08:10.126Z,7.07
2022-09-29T03:10:37.957Z,7.03
2022-09-29T03:13:05.724Z,7.04
2022-09-29T03:15:33.533Z,7.03
2022-09-29T03:18:05.223Z,6.97
2022-09-29T03:20:36.069Z,6.98
2022-09-29T03:23:03.854Z,6.99
2022-09-29T03:25:32.925Z,6.99
2022-09-29T03:28:00.625Z,6.95
2022-09-29T03:30:28.365Z,6.93
2022-09-29T03:32:56.105Z,6.91
2022-09-29T03:35:23.926Z,6.91
2022-09-29T03:37:51.609Z,6.89
2022-09-29T03:40:19.449Z,6.87
2022-09-29T03:42:48.590Z,6.87
2022-09-29T03:45:16.514Z,6.86
2022-09-29T03:47:44.229Z,6.87
2022-09-29T03:50:12.166Z,6.84
2022-09-29T03:52:39.890Z,6.84
2022-09-29T03:55:08.835Z,6.82
2022-09-29T03:57:36.550Z,6.76
2022-09-29T04:00:06.256Z,6.69
2022-09-29T04:02:36.108Z,6.70
2022-09-29T04:05:04.006Z,6.72
2022-09-29T04:07:32.485Z,6.71
2022-09-29T04:10:00.302Z,6.68
2022-09-29T04:12:28.047Z,6.68
2022-09-29T04:14:55.833Z,6.68
2022-09-29T04:17:25.126Z,6.69
2022-09-29T04:19:52.949Z,6.74
2022-09-29T04:22:21.594Z,6.78
2022-09-29T04:24:49.328Z,6.81
2022-09-29T04:27:17.611Z,6.83
2022-09-29T04:29:45.543Z,6.87
2022-09-29T04:32:13.259Z,6.93
2022-09-29T04:34:42.989Z,6.98
2022-09-29T04:37:11.815Z,7.02
2022-09-29T04:39:39.930Z,7.02
2022-09-29T04:42:08.107Z,7.07
2022-09-29T04:44:35.835Z,7.14
2022-09-29T04:47:03.615Z,7.17
2022-09-29T04:49:31.314Z,7.20
2022-09-29T04:52:00.469Z,7.24
2022-09-29T04:54:37.466Z,7.19
2022-09-29T04:57:05.942Z,7.14
2022-09-29T04:59:34.149Z,7.10
2022-09-29T05:02:01.994Z,7.05
2022-09-29T05:04:29.820Z,7.03
2022-09-29T05:06:57.673Z,7.01
2022-09-29T05:09:31.116Z,6.99
2022-09-29T05:12:01.106Z,6.96
2022-09-29T05:14:29.095Z,6.96
2022-09-29T05:16:57.425Z,6.94
2022-09-29T05:19:25.237Z,6.95
2022-09-29T05:21:52.996Z,6.95
2022-09-29T05:24:20.729Z,6.94
2022-09-29T05:26:50.671Z,6.95
2022-09-29T05:29:20.715Z,6.94
2022-09-29T05:31:48.572Z,6.96
2022-09-29T05:34:16.392Z,6.97
2022-09-29T05:36:44.288Z,6.96
2022-09-29T05:39:12.535Z,6.94
2022-09-29T05:41:40.597Z,6.95
2022-09-29T05:44:09.697Z,6.96
2022-09-29T05:46:37.385Z,6.96
2022-09-29T05:49:05.397Z,6.97
2022-09-29T05:51:33.193Z,6.96
2022-09-29T05:54:02.034Z,7.00
2022-09-29T05:56:29.795Z,7.01
2022-09-29T05:58:57.553Z,7.02
2022-09-29T06:01:27.733Z,7.06
2022-09-29T06:03:55.835Z,7.08
2022-09-29T06:06:26.657Z,7.09
2022-09-29T06:08:55.185Z,7.14
2022-09-29T06:11:24.843Z,7.17
2022-09-29T06:13:53.977Z,7.20
2022-09-29T06:16:23.915Z,7.25
2022-09-29T06:18:53.726Z,7.26
2022-09-29T06:21:23.785Z,7.30
2022-09-29T06:23:51.970Z,7.34
2022-09-29T06:26:23.936Z,7.39
2022-09-29T06:28:53.064Z,7.42
2022-09-29T06:31:24.005Z,7.45
2022-09-29T06:33:53.968Z,7.49
2022-09-29T06:36:42.092Z,7.55
2022-09-29T06:39:13.208Z,7.60
2022-09-29T06:41:41.515Z,7.63
2022-09-29T06:44:09.860Z,7.65
2022-09-29T06:46:37.651Z,7.70
2022-09-29T06:49:06.761Z,7.73
2022-09-29T06:51:45.491Z,7.75
2022-09-29T06:54:14.794Z,7.81
2022-09-29T06:56:42.966Z,7.83
2022-09-29T06:59:10.720Z,7.88
2022-09-29T07:01:38.573Z,7.93
2022-09-29T07:04:08.296Z,7.98
2022-09-29T07:06:36.089Z,8.01
2022-09-29T07:09:04.205Z,8.05
2022-09-29T07:11:31.993Z,8.07
2022-09-29T07:13:59.749Z,8.15
2022-09-29T07:16:27.575Z,8.23
2022-09-29T07:18:55.334Z,8.29
2022-09-29T07:21:24.459Z,8.38
2022-09-29T07:23:52.189Z,8.44
2022-09-29T07:26:20.091Z,8.46
2022-09-29T07:28:48.219Z,8.53
2022-09-29T07:31:18.247Z,8.57
2022-09-29T07:33:47.595Z,8.60
2022-09-29T07:36:17.171Z,8.69
2022-09-29T07:38:48.835Z,8.73
2022-09-29T07:41:18.043Z,8.80
2022-09-29T07:43:45.772Z,8.85
2022-09-29T07:46:13.844Z,8.87
2022-09-29T07:48:42.361Z,8.94
2022-09-29T07:51:12.575Z,8.99
2022-09-29T07:53:40.895Z,9.07
2022-09-29T07:56:12.831Z,9.14
2022-09-29T07:58:42.068Z,9.21
2022-09-29T08:01:13.236Z,9.30
2022-09-29T08:03:42.735Z,9.31
2022-09-29T08:06:11.307Z,9.33
2022-09-29T08:08:40.611Z,9.34
2022-09-29T08:11:20.140Z,9.32
2022-09-29T08:13:54.108Z,9.31
2022-09-29T08:16:22.391Z,9.45
2022-09-29T08:18:50.721Z,9.55
2022-09-29T08:21:18.527Z,9.60
2022-09-29T08:23:46.585Z,9.62
2022-09-29T08:26:17.919Z,9.69
2022-09-29T08:28:47.708Z,9.80
2022-09-29T08:31:21.189Z,9.85
2022-09-29T08:33:51.239Z,9.93
2022-09-29T08:36:19.231Z,10.00
2022-09-29T08:38:48.834Z,10.17
2022-09-29T08:41:30.373Z,10.40
2022-09-29T08:44:04.048Z,10.50
2022-09-29T08:46:36.752Z,10.50
2022-09-29T08:49:10.321Z,10.59
2022-09-29T08:51:45.080Z,10.67
2022-09-29T08:54:34.271Z,10.57
2022-09-29T08:57:07.848Z,10.50
2022-09-29T08:59:36.171Z,10.50
2022-09-29T09:02:31.104Z,10.66
2022-09-29T09:05:19.477Z,10.72
2022-09-29T09:08:00.568Z,10.79
2022-09-29T09:10:41.237Z,10.82
2022-09-29T09:13:20.916Z,10.85
2022-09-29T09:16:11.013Z,11.01
2022-09-29T09:19:15.373Z,11.10
2022-09-29T09:21:45.231Z,11.21
2022-09-29T09:24:20.337Z,11.30
2022-09-29T09:26:49.399Z,11.32
2022-09-29T09:29:26.286Z,11.34
2022-09-29T09:32:04.082Z,11.41
2022-09-29T09:34:44.163Z,11.57
2022-09-29T09:37:22.518Z,11.67
2022-09-29T09:40:00.441Z,11.62
2022-09-29T09:42:31.935Z,11.65
2022-09-29T09:45:05.908Z,11.66
2022-09-29T09:47:39.099Z,11.65
2022-09-29T09:50:15.861Z,11.65
2022-09-29T09:52:48.761Z,11.63
2022-09-29T09:55:18.647Z,11.76
2022-09-29T09:58:22.021Z,11.96
2022-09-29T10:00:56.575Z,12.11
2022-09-29T10:03:24.369Z,12.14
2022-09-29T10:05:52.265Z,12.24
2022-09-29T10:08:26.245Z,12.42
2022-09-29T10:10:59.560Z,12.71
2022-09-29T10:13:30.076Z,12.86
2022-09-29T10:16:10.892Z,12.79
2022-09-29T10:18:41.642Z,12.80
2022-09-29T10:21:23.337Z,12.85
2022-09-29T10:23:55.761Z,13.18
2022-09-29T10:26:26.717Z,13.44
2022-09-29T10:28:59.354Z,13.59
2022-09-29T10:31:31.347Z,13.45
2022-09-29T10:34:02.413Z,13.24
2022-09-29T10:36:33.630Z,13.16
2022-09-29T10:39:03.742Z,13.04
2022-09-29T10:41:54.011Z,12.97
2022-09-29T10:44:22.952Z,12.81
2022-09-29T10:46:55.820Z,12.65
2022-09-29T10:49:25.376Z,12.67
2022-09-29T10:51:57.526Z,12.63
2022-09-29T10:54:27.249Z,12.55
2022-09-29T10:56:56.930Z,12.51
2022-09-29T10:59:26.187Z,12.60
2022-09-29T11:01:59.729Z,12.67
2022-09-29T11:04:30.660Z,12.83
2022-09-29T11:07:06.698Z,12.95
2022-09-29T11:09:39.766Z,13.04
2022-09-29T11:12:28.228Z,13.15
2022-09-29T11:14:56.363Z,13.32
2022-09-29T11:17:27.276Z,13.48
2022-09-29T11:19:56.676Z,13.63
2022-09-29T11:22:52.469Z,13.74
2022-09-29T11:25:33.294Z,13.91
2022-09-29T11:28:26.751Z,13.97
2022-09-29T11:31:09.501Z,13.90
2022-09-29T11:33:49.693Z,13.89
2022-09-29T11:36:27.582Z,14.14
2022-09-29T11:39:06.440Z,14.43
2022-09-29T11:41:50.345Z,14.59
2022-09-29T11:44:43.283Z,14.48
2022-09-29T11:47:28.541Z,14.65
2022-09-29T11:50:15.012Z,14.86
2022-09-29T11:53:00.870Z,14.83
2022-09-29T11:55:45.225Z,14.82
2022-09-29T11:58:28.346Z,14.95
2022-09-29T12:01:14.106Z,14.99
2022-09-29T12:03:48.066Z,15.01
2022-09-29T12:06:37.362Z,15.00
2022-09-29T12:09:19.661Z,15.04
2022-09-29T12:12:18.860Z,15.09
2022-09-29T12:15:01.051Z,15.00
2022-09-29T12:17:34.249Z,15.03
2022-09-29T12:20:07.128Z,15.12
2022-09-29T12:22:37.395Z,15.14
2022-09-29T12:25:14.534Z,15.11
2022-09-29T12:27:45.420Z,15.15
2022-09-29T12:30:20.901Z,15.44
2022-09-29T12:32:53.750Z,15.60
2022-09-29T12:35:28.149Z,15.68
2022-09-29T12:38:07.358Z,15.71
2022-09-29T12:40:39.293Z,15.54
2022-09-29T12:43:15.750Z,15.42
2022-09-29T12:45:53.234Z,15.43
2022-09-29T12:48:32.640Z,15.56
2022-09-29T12:51:04.578Z,15.65
2022-09-29T12:53:38.419Z,15.72
2022-09-29T12:56:11.678Z,15.70
2022-09-29T12:58:45.954Z,15.70
2022-09-29T13:01:28.070Z,15.62
2022-09-29T13:04:34.850Z,15.57
2022-09-29T13:07:18.513Z,15.55
2022-09-29T13:10:22.531Z,15.49
2022-09-29T13:13:09.217Z,15.40
2022-09-29T13:15:56.326Z,15.27
2022-09-29T13:19:20.363Z,15.24
2022-09-29T13:22:02.182Z,15.20
2022-09-29T13:24:50.064Z,15.29
2022-09-29T13:27:34.071Z,15.16
2022-09-29T13:30:09.336Z,15.08
2022-09-29T13:32:42.090Z,15.22
2022-09-29T13:35:17.371Z,15.52
2022-09-29T13:37:49.653Z,15.44
2022-09-29T13:40:22.025Z,15.66
2022-09-29T13:42:55.520Z,15.78
2022-09-29T13:45:46.732Z,15.72
2022-09-29T13:48:52.445Z,15.74
2022-09-29T13:51:43.532Z,15.78
2022-09-29T13:54:36.461Z,15.88
2022-09-29T13:57:28.886Z,15.85
2022-09-29T14:00:22.649Z,15.75
2022-09-29T14:03:02.934Z,15.49
2022-09-29T14:05:40.748Z,15.38
2022-09-29T14:08:23.693Z,15.52
2022-09-29T14:10:59.747Z,15.56
2022-09-29T14:13:31.133Z,15.60
2022-09-29T14:16:18.547Z,15.55
2022-09-29T14:18:49.662Z,15.52
2022-09-29T14:21:56.284Z,15.45
2022-09-29T14:24:44.468Z,15.24
2022-09-29T14:27:27.954Z,15.14
2022-09-29T14:30:02.277Z,15.04
2022-09-29T14:32:42.460Z,14.89
2022-09-29T14:35:26.314Z,14.76
2022-09-29T14:38:01.728Z,14.84
2022-09-29T14:40:29.752Z,14.86
2022-09-29T14:43:13.501Z,14.90
2022-09-29T14:46:14.379Z,14.87
2022-09-29T14:49:13.530Z,14.93
2022-09-29T14:52:01.085Z,15.01
2022-09-29T14:54:43.109Z,15.01
2022-09-29T14:57:35.293Z,14.94
2022-09-29T15:00:07.858Z,14.83
2022-09-29T15:02:37.410Z,14.75
2022-09-29T15:05:31.187Z,14.75
2022-09-29T15:08:00.250Z,14.75
2022-09-29T15:10:30.594Z,14.74
2022-09-29T15:13:20.020Z,14.76
2022-09-29T15:15:49.799Z,14.78
2022-09-29T15:18:33.075Z,14.83
2022-09-29T15:21:07.767Z,14.81
2022-09-29T15:24:08.296Z,14.75
2022-09-29T15:26:36.916Z,14.67
2022-09-29T15:29:07.624Z,14.65
2022-09-29T15:31:35.853Z,14.69
2022-09-29T15:34:05.246Z,14.67
2022-09-29T15:36:37.479Z,14.69
2022-09-29T15:39:07.773Z,14.71
2022-09-29T15:41:36.288Z,14.69
2022-09-29T15:44:13.161Z,14.62
2022-09-29T15:46:48.813Z,14.62
2022-09-29T15:49:19.135Z,14.60
2022-09-29T15:51:57.959Z,14.68
2022-09-29T15:54:27.323Z,14.50
2022-09-29T15:57:12.834Z,14.42
2022-09-29T15:59:43.254Z,14.45
2022-09-29T16:02:22.010Z,14.51
2022-09-29T16:04:54.903Z,14.48
2022-09-29T16:07:29.121Z,14.44
2022-09-29T16:10:03.339Z,14.38
2022-09-29T16:12:36.219Z,14.32
2022-09-29T16:15:04.228Z,14.23
2022-09-29T16:17:32.050Z,14.19
2022-09-29T16:20:01.662Z,14.17
2022-09-29T16:22:30.981Z,14.14
2022-09-29T16:25:10.670Z,14.08
2022-09-29T16:27:54.717Z,14.07
2022-09-29T16:30:25.488Z,14.12
2022-09-29T16:32:57.113Z,14.16
2022-09-29T16:35:57.387Z,14.10
2022-09-29T16:38:35.419Z,13.91
2022-09-29T16:41:14.559Z,13.72
2022-09-29T16:43:45.007Z,13.52
2022-09-29T16:46:16.281Z,13.35
2022-09-29T16:48:46.093Z,13.20
2022-09-29T16:51:38.265Z,13.05
2022-09-29T16:54:15.800Z,12.88
2022-09-29T16:56:45.386Z,12.76
2022-09-29T16:59:16.224Z,12.64
2022-09-29T17:01:46.173Z,12.52
2022-09-29T17:04:14.098Z,12.42
2022-09-29T17:06:47.049Z,12.33
2022-09-29T17:09:21.032Z,12.22
2022-09-29T17:11:49.456Z,12.14
2022-09-29T17:14:18.396Z,12.05
2022-09-29T17:16:46.180Z,11.96
2022-09-29T17:19:14.157Z,11.89
2022-09-29T17:21:42.067Z,11.83
2022-09-29T17:24:09.854Z,11.76
2022-09-29T17:26:58.731Z,11.70
2022-09-29T17:29:26.527Z,11.60
2022-09-29T17:31:54.345Z,11.56
2022-09-29T17:34:25.559Z,11.51
2022-09-29T17:36:53.939Z,11.44
2022-09-29T17:39:21.814Z,11.39
2022-09-29T17:41:50.988Z,11.33
2022-09-29T17:44:18.919Z,11.28
2022-09-29T17:46:47.060Z,11.25
2022-09-29T17:49:17.271Z,11.19
2022-09-29T17:51:45.050Z,11.12
2022-09-29T17:54:12.940Z,11.09
2022-09-29T17:56:43.890Z,11.04
2022-09-29T17:59:14.296Z,10.98
2022-09-29T18:01:42.459Z,10.93
2022-09-29T18:04:11.403Z,10.90
2022-09-29T18:06:39.315Z,10.85
2022-09-29T18:09:17.712Z,10.81
2022-09-29T18:11:45.979Z,10.78
2022-09-29T18:14:15.082Z,10.73
2022-09-29T18:16:42.872Z,10.70
2022-09-29T18:19:17.188Z,10.66
2022-09-29T18:21:45.152Z,10.62
2022-09-29T18:24:13.225Z,10.59
2022-09-29T18:26:44.026Z,10.55
2022-09-29T18:29:18.889Z,10.51
2022-09-29T18:31:47.864Z,10.48
2022-09-29T18:34:17.789Z,10.42
2022-09-29T18:36:46.356Z,10.39
2022-09-29T18:39:14.303Z,10.38
2022-09-29T18:41:42.208Z,10.34
2022-09-29T18:44:24.043Z,10.32
2022-09-29T18:46:52.015Z,10.28
2022-09-29T18:49:19.872Z,10.25
2022-09-29T18:51:47.562Z,10.21
2022-09-29T18:54:16.032Z,10.18
2022-09-29T18:56:43.751Z,10.14
2022-09-29T18:59:12.720Z,10.10
2022-09-29T19:01:42.287Z,10.08
2022-09-29T19:04:10.904Z,10.06
2022-09-29T19:06:38.668Z,10.02
2022-09-29T19:09:06.504Z,10.00
2022-09-29T19:11:34.370Z,9.96
2022-09-29T19:14:03.577Z,9.93
2022-09-29T19:16:33.969Z,9.92
2022-09-29T19:19:04.504Z,9.91
2022-09-29T19:21:33.316Z,9.89
2022-09-29T19:24:01.465Z,9.87
2022-09-29T19:26:30.371Z,9.87
2022-09-29T19:28:58.120Z,9.85
2022-09-29T19:31:25.904Z,9.87
2022-09-29T19:33:54.931Z,9.90
2022-09-29T19:36:24.071Z,9.93
2022-09-29T19:38:51.992Z,9.94
2022-09-29T19:41:22.905Z,9.98
2022-09-29T19:43:50.845Z,10.00
2022-09-29T19:46:21.159Z,10.02
2022-09-29T19:48:49.301Z,10.05
2022-09-29T19:51:35.455Z,10.02
2022-09-29T19:54:14.634Z,10.02
2022-09-29T19:56:44.561Z,10.02
2022-09-29T19:59:13.917Z,10.02
2022-09-29T20:01:42.070Z,10.03
2022-09-29T20:04:11.586Z,10.02
2022-09-29T20:06:39.829Z,10.00
2022-09-29T20:09:13.919Z,10.02
2022-09-29T20:11:41.783Z,10.02
2022-09-29T20:14:13.022Z,10.03
2022-09-29T20:16:43.108Z,10.07
2022-09-29T20:19:14.000Z,10.05
2022-09-29T20:21:41.850Z,10.07
2022-09-29T20:24:12.112Z,10.08
2022-09-29T20:26:39.801Z,10.08
2022-09-29T20:29:08.382Z,10.09
2022-09-29T20:31:38.600Z,10.11
2022-09-29T20:34:07.108Z,10.14
2022-09-29T20:36:35.912Z,10.14
2022-09-29T20:39:03.729Z,10.16
2022-09-29T20:41:32.799Z,10.13
2022-09-29T20:44:00.502Z,10.18
2022-09-29T20:46:28.564Z,10.23
2022-09-29T20:48:58.158Z,10.24
2022-09-29T20:51:28.664Z,10.24
2022-09-29T20:53:58.620Z,10.24
2022-09-29T20:56:31.228Z,10.23
2022-09-29T20:59:01.012Z,10.28
2022-09-29T21:01:30.468Z,10.31
2022-09-29T21:04:00.455Z,10.33
2022-09-29T21:06:30.108Z,10.34
2022-09-29T21:08:59.569Z,10.36
2022-09-29T21:11:27.665Z,10.35
2022-09-29T21:13:57.850Z,10.33
2022-09-29T21:16:27.159Z,10.32
2022-09-29T21:18:55.247Z,10.31
2022-09-29T21:21:24.001Z,10.29
2022-09-29T21:23:51.901Z,10.31
2022-09-29T21:26:23.493Z,10.33
2022-09-29T21:28:53.310Z,10.35
2022-09-29T21:31:23.026Z,10.36
2022-09-29T21:33:55.436Z,10.40
2022-09-29T21:36:24.322Z,10.43
2022-09-29T21:38:52.999Z,10.42
2022-09-29T21:41:23.651Z,10.43
2022-09-29T21:43:53.351Z,10.45
2022-09-29T21:46:23.399Z,10.46
2022-09-29T21:48:53.213Z,10.42
2022-09-29T21:51:24.704Z,10.42
2022-09-29T21:53:53.356Z,10.40
2022-09-29T21:56:23.910Z,10.38
2022-09-29T21:58:54.459Z,10.38
2022-09-29T22:01:22.587Z,10.35
2022-09-29T22:03:51.680Z,10.35
2022-09-29T22:06:22.663Z,10.38
2022-09-29T22:08:51.457Z,10.39
2022-09-29T22:11:21.908Z,10.40
2022-09-29T22:13:51.145Z,10.42
2022-09-29T22:16:21.733Z,10.42
2022-09-29T22:19:06.130Z,10.38
2022-09-29T22:21:40.512Z,10.37
2022-09-29T22:24:10.457Z,10.39
2022-09-29T22:26:40.329Z,10.35
2022-09-29T22:29:08.231Z,10.34
2022-09-29T22:31:40.319Z,10.31
2022-09-29T22:34:08.961Z,10.31
2022-09-29T22:36:37.048Z,10.31
2022-09-29T22:39:07.453Z,10.29
2022-09-29T22:41:36.884Z,10.27
2022-09-29T22:44:05.309Z,10.27
2022-09-29T22:46:34.821Z,10.27
2022-09-29T22:49:02.910Z,10.28
2022-09-29T22:51:30.836Z,10.26
2022-09-29T22:53:59.648Z,10.24
2022-09-29T22:56:29.365Z,10.25
2022-09-29T22:59:01.930Z,10.24
2022-09-29T23:01:30.576Z,10.22
2022-09-29T23:03:58.624Z,10.20
2022-09-29T23:06:26.670Z,10.20
2022-09-29T23:08:56.395Z,10.18
2022-09-29T23:11:24.375Z,10.15
2022-09-29T23:13:54.009Z,10.13
2022-09-29T23:16:22.163Z,10.09
2022-09-29T23:18:54.991Z,10.08
2022-09-29T23:21:24.242Z,10.03
2022-09-29T23:23:55.386Z,10.02
2022-09-29T23:26:23.869Z,10.01
2022-09-29T23:28:55.181Z,9.98
2022-09-29T23:31:24.053Z,9.97
2022-09-29T23:33:53.106Z,9.94
2022-09-29T23:36:20.987Z,9.96
2022-09-29T23:39:06.400Z,9.94
2022-09-29T23:41:34.712Z,9.95
2022-09-29T23:44:05.942Z,9.98
2022-09-29T23:46:35.969Z,9.98
2022-09-29T23:49:09.424Z,9.98
2022-09-29T23:51:39.095Z,9.97
2022-09-29T23:54:08.030Z,9.98
2022-09-29T23:56:36.232Z,9.98
2022-09-29T23:59:06.441Z,9.97
